Time;durP1;ratioP1;P1;durP2;ratioP2;P2;SDS_P1;SDS_P2;PMS_P1;PMS_P2;Temp;Humidity;BMP_temperature;BMP_pressure;BME280_temperature;BME280_humidity;BME280_pressure;Samples;Min_cycle;Max_cycle;Signal;HPM_P1;HPM_P2
2023/12/22 00:00:10;;;;;;;19.40;3.22;;;;;;;;;;5058869;28;20080;-88
2023/12/22 00:02:37;;;;;;;22.60;3.33;;;;;;;;;;5044025;28;20053;-92
2023/12/22 00:05:05;;;;;;;18.50;3.20;;;;;;;;;;5044084;28;20111;-92
2023/12/22 00:07:32;;;;;;;13.95;2.88;;;;;;;;;;5061714;28;20041;-92
2023/12/22 00:09:59;;;;;;;23.98;3.60;;;;;;;;;;5044402;28;20113;-93
2023/12/22 00:12:26;;;;;;;15.38;3.20;;;;;;;;;;5040371;28;20049;-93
2023/12/22 00:14:53;;;;;;;11.30;2.28;;;;;;;;;;5057474;28;20103;-92
2023/12/22 00:17:21;;;;;;;13.85;2.80;;;;;;;;;;5059931;28;20072;-94
2023/12/22 00:19:48;;;;;;;13.02;3.25;;;;;;;;;;5045099;28;20049;-94
2023/12/22 00:22:15;;;;;;;24.40;3.70;;;;;;;;;;5039806;28;20139;-93
2023/12/22 00:24:42;;;;;;;18.02;2.92;;;;;;;;;;5036269;28;20049;-93
2023/12/22 00:27:10;;;;;;;12.23;2.45;;;;;;;;;;5046815;28;20444;-93
2023/12/22 00:29:37;;;;;;;15.80;2.60;;;;;;;;;;5060834;28;20073;-94
2023/12/22 00:32:04;;;;;;;15.20;2.72;;;;;;;;;;5044846;28;20053;-92
2023/12/22 00:34:31;;;;;;;22.10;3.20;;;;;;;;;;5051305;28;20482;-91
2023/12/22 00:37:00;;;;;;;12.13;2.63;;;;;;;;;;5061100;28;20041;-92
2023/12/22 00:39:27;;;;;;;19.38;3.88;;;;;;;;;;5048533;28;20083;-91
2023/12/22 00:41:54;;;;;;;15.68;2.42;;;;;;;;;;5050071;28;20041;-92
2023/12/22 00:44:21;;;;;;;16.63;2.95;;;;;;;;;;5044532;28;20049;-93
2023/12/22 00:46:49;;;;;;;16.80;3.25;;;;;;;;;;5060636;28;20103;-93
2023/12/22 00:49:18;;;;;;;23.25;2.78;;;;;;;;;;5063179;28;20136;-94
2023/12/22 00:51:45;;;;;;;13.60;2.58;;;;;;;;;;5048558;28;20059;-93
2023/12/22 00:54:12;;;;;;;15.57;3.13;;;;;;;;;;5061101;28;20049;-93
2023/12/22 00:56:39;;;;;;;17.65;2.63;;;;;;;;;;5062925;28;20493;-93
2023/12/22 00:59:07;;;;;;;24.65;3.30;;;;;;;;;;5052230;28;20080;-94
2023/12/22 01:01:38;;;;;;;16.23;2.72;;;;;;;;;;5060186;28;20482;-90
2023/12/22 01:04:05;;;;;;;17.83;2.38;;;;;;;;;;5060562;28;20073;-92
2023/12/22 01:06:33;;;;;;;17.08;2.75;;;;;;;;;;5038120;28;20064;-93
2023/12/22 01:09:00;;;;;;;16.85;2.88;;;;;;;;;;5040774;28;20072;-93
2023/12/22 01:11:27;;;;;;;16.88;2.30;;;;;;;;;;5036006;28;20069;-91
2023/12/22 01:13:54;;;;;;;8.13;2.20;;;;;;;;;;5043873;28;20045;-92
2023/12/22 01:16:22;;;;;;;17.23;2.90;;;;;;;;;;5068520;28;20382;-93
2023/12/22 01:18:50;;;;;;;9.07;1.83;;;;;;;;;;5060015;28;20054;-93
2023/12/22 01:21:18;;;;;;;16.50;2.03;;;;;;;;;;5063167;28;20560;-91
2023/12/22 01:23:45;;;;;;;14.48;2.47;;;;;;;;;;5046828;28;20053;-92
2023/12/22 01:26:12;;;;;;;10.57;2.25;;;;;;;;;;5029084;28;20050;-92
2023/12/22 01:28:39;;;;;;;15.88;2.70;;;;;;;;;;5061837;28;20076;-91
2023/12/22 01:31:07;;;;;;;17.20;3.08;;;;;;;;;;5061160;28;20045;-92
2023/12/22 01:33:34;;;;;;;9.23;2.30;;;;;;;;;;5046298;28;20134;-92
2023/12/22 01:36:01;;;;;;;15.80;2.45;;;;;;;;;;5056168;28;20521;-92
2023/12/22 01:38:28;;;;;;;13.48;2.45;;;;;;;;;;5059483;28;20119;-93
2023/12/22 01:40:56;;;;;;;20.88;2.72;;;;;;;;;;5060004;28;20084;-92
2023/12/22 01:43:23;;;;;;;21.05;2.80;;;;;;;;;;5062867;28;20059;-93
2023/12/22 01:45:53;;;;;;;12.38;1.83;;;;;;;;;;5046945;28;20448;-91
2023/12/22 01:48:22;;;;;;;16.40;2.28;;;;;;;;;;5044007;28;20154;-91
2023/12/22 01:50:50;;;;;;;15.68;2.70;;;;;;;;;;5052874;28;20104;-91
2023/12/22 01:53:18;;;;;;;9.27;2.20;;;;;;;;;;5023229;28;20104;-93
2023/12/22 01:55:46;;;;;;;11.63;2.47;;;;;;;;;;5035079;28;20764;-90
2023/12/22 01:58:13;;;;;;;7.63;1.83;;;;;;;;;;5044830;28;20048;-91
2023/12/22 02:00:41;;;;;;;9.02;2.42;;;;;;;;;;5060875;28;20452;-92
2023/12/22 02:03:08;;;;;;;8.60;2.08;;;;;;;;;;5060452;28;20080;-93
2023/12/22 02:05:36;;;;;;;10.60;1.77;;;;;;;;;;5046054;28;20055;-92
2023/12/22 02:08:03;;;;;;;19.38;2.65;;;;;;;;;;5053405;28;20051;-90
2023/12/22 02:10:30;;;;;;;16.55;2.90;;;;;;;;;;5078296;28;20514;-92
2023/12/22 02:12:58;;;;;;;13.13;2.88;;;;;;;;;;5069785;28;20057;-90
2023/12/22 02:15:25;;;;;;;16.08;2.65;;;;;;;;;;5050328;28;20053;-92
2023/12/22 02:17:55;;;;;;;13.55;2.22;;;;;;;;;;5035359;28;20058;-92
2023/12/22 02:20:22;;;;;;;13.63;2.42;;;;;;;;;;5045731;28;20489;-91
2023/12/22 02:22:53;;;;;;;15.73;2.58;;;;;;;;;;5045955;28;20072;-92
2023/12/22 02:25:20;;;;;;;13.65;2.42;;;;;;;;;;5042864;28;20144;-92
2023/12/22 02:27:53;;;;;;;13.15;2.15;;;;;;;;;;5058495;28;20134;-92
2023/12/22 02:30:23;;;;;;;10.30;1.60;;;;;;;;;;5058067;28;20061;-92
2023/12/22 02:32:54;;;;;;;11.48;2.53;;;;;;;;;;5035888;28;20052;-93
2023/12/22 02:35:21;;;;;;;7.30;1.73;;;;;;;;;;5042926;28;20053;-93
2023/12/22 02:37:49;;;;;;;15.20;3.38;;;;;;;;;;5056544;28;20516;-91
2023/12/22 02:40:17;;;;;;;14.52;2.75;;;;;;;;;;5043569;28;20060;-93
2023/12/22 02:42:45;;;;;;;12.32;1.83;;;;;;;;;;5058960;28;20144;-93
2023/12/22 02:45:16;;;;;;;10.68;1.75;;;;;;;;;;5060054;28;20041;-93
2023/12/22 02:47:43;;;;;;;12.77;2.45;;;;;;;;;;5045327;28;20067;-92
2023/12/22 02:50:11;;;;;;;7.97;1.83;;;;;;;;;;5027835;28;20506;-94
2023/12/22 02:52:38;;;;;;;10.07;2.35;;;;;;;;;;5057814;28;20056;-92
2023/12/22 02:55:06;;;;;;;14.23;2.20;;;;;;;;;;5058780;28;20053;-92
2023/12/22 02:57:33;;;;;;;11.88;2.10;;;;;;;;;;5045323;28;20417;-92
2023/12/22 03:00:00;;;;;;;12.32;2.03;;;;;;;;;;5044807;28;20049;-93
2023/12/22 03:02:27;;;;;;;7.78;1.75;;;;;;;;;;5057880;28;20060;-92
2023/12/22 03:04:55;;;;;;;8.30;1.60;;;;;;;;;;5058332;28;20103;-91
2023/12/22 03:07:22;;;;;;;9.80;1.77;;;;;;;;;;5060894;28;20056;-92
2023/12/22 03:09:49;;;;;;;5.78;1.63;;;;;;;;;;5044948;28;20055;-91
2023/12/22 03:12:17;;;;;;;17.38;2.35;;;;;;;;;;5037776;28;20111;-93
2023/12/22 03:14:44;;;;;;;7.60;1.50;;;;;;;;;;5044454;28;20073;-89
2023/12/22 03:17:11;;;;;;;10.75;1.92;;;;;;;;;;5036135;28;20111;-93
2023/12/22 03:19:39;;;;;;;9.55;1.92;;;;;;;;;;5044474;28;20187;-94
2023/12/22 03:22:07;;;;;;;14.48;1.90;;;;;;;;;;5044183;28;20139;-90
2023/12/22 03:24:35;;;;;;;7.20;1.33;;;;;;;;;;5071286;28;20057;-92
2023/12/22 03:27:02;;;;;;;12.00;2.20;;;;;;;;;;5061437;28;20045;-91
2023/12/22 03:29:29;;;;;;;11.57;1.92;;;;;;;;;;5057524;28;20049;-92
2023/12/22 03:31:56;;;;;;;9.85;1.77;;;;;;;;;;5058063;28;20065;-91
2023/12/22 03:34:23;;;;;;;7.63;2.20;;;;;;;;;;5044169;28;20140;-92
2023/12/22 03:36:51;;;;;;;7.13;1.70;;;;;;;;;;5048774;28;20057;-90
2023/12/22 03:39:18;;;;;;;10.32;2.00;;;;;;;;;;5042368;28;20053;-95
2023/12/22 03:41:45;;;;;;;5.82;1.90;;;;;;;;;;5051847;28;20050;-91
2023/12/22 03:44:12;;;;;;;7.50;1.85;;;;;;;;;;5039428;28;20053;-91
2023/12/22 03:46:40;;;;;;;11.60;1.60;;;;;;;;;;5057312;28;20099;-92
2023/12/22 03:49:07;;;;;;;11.30;1.90;;;;;;;;;;5058379;28;20418;-93
2023/12/22 03:51:34;;;;;;;11.35;2.00;;;;;;;;;;5044217;28;20102;-92
2023/12/22 03:54:02;;;;;;;8.90;1.83;;;;;;;;;;5044373;28;20049;-91
2023/12/22 03:56:29;;;;;;;7.82;1.15;;;;;;;;;;5053444;28;20421;-93
2023/12/22 03:58:57;;;;;;;5.63;1.45;;;;;;;;;;5047209;28;20041;-92
2023/12/22 04:01:24;;;;;;;5.70;1.25;;;;;;;;;;5045005;28;20045;-91
2023/12/22 04:03:51;;;;;;;11.80;1.60;;;;;;;;;;5062038;28;20087;-92
2023/12/22 04:06:19;;;;;;;8.80;1.60;;;;;;;;;;5058567;28;20049;-92
2023/12/22 04:08:46;;;;;;;5.25;1.48;;;;;;;;;;5037212;28;20486;-92
2023/12/22 04:11:13;;;;;;;7.82;1.55;;;;;;;;;;5046369;28;20048;-91
2023/12/22 04:13:40;;;;;;;6.20;1.20;;;;;;;;;;5060668;28;20042;-91
2023/12/22 04:16:08;;;;;;;6.38;1.60;;;;;;;;;;5060965;28;20055;-92
2023/12/22 04:18:35;;;;;;;7.70;1.38;;;;;;;;;;5060717;28;20063;-91
2023/12/22 04:21:03;;;;;;;5.10;1.40;;;;;;;;;;5061278;28;20123;-91
2023/12/22 04:23:30;;;;;;;9.65;1.35;;;;;;;;;;5048496;28;20052;-93
2023/12/22 04:25:57;;;;;;;7.25;1.55;;;;;;;;;;5048201;28;20048;-92
2023/12/22 04:28:24;;;;;;;3.28;1.10;;;;;;;;;;5044507;28;20505;-92
2023/12/22 04:30:52;;;;;;;7.20;1.27;;;;;;;;;;5061272;28;20275;-92
2023/12/22 04:33:19;;;;;;;9.55;1.38;;;;;;;;;;5063461;28;20049;-92
2023/12/22 04:35:46;;;;;;;7.45;1.75;;;;;;;;;;5047668;28;20075;-92
2023/12/22 04:38:14;;;;;;;8.50;1.52;;;;;;;;;;5047382;28;20378;-92
2023/12/22 04:40:41;;;;;;;12.55;1.77;;;;;;;;;;5060685;28;20111;-92
2023/12/22 04:43:08;;;;;;;8.88;1.60;;;;;;;;;;5046657;28;20071;-93
2023/12/22 04:45:35;;;;;;;9.68;1.50;;;;;;;;;;5038337;28;20472;-92
2023/12/22 04:48:03;;;;;;;8.85;1.27;;;;;;;;;;5044452;28;20109;-94
2023/12/22 04:50:30;;;;;;;5.72;1.30;;;;;;;;;;5064342;28;20053;-93
2023/12/22 04:52:58;;;;;;;7.45;1.27;;;;;;;;;;5071409;28;20045;-91
2023/12/22 04:55:38;;;;;;;5.88;1.27;;;;;;;;;;5043612;28;20174;-93
2023/12/22 04:58:09;;;;;;;3.45;1.42;;;;;;;;;;5046107;28;20041;-94
2023/12/22 05:00:39;;;;;;;12.95;1.13;;;;;;;;;;5060667;28;20065;-94
2023/12/22 05:03:15;;;;;;;11.75;2.25;;;;;;;;;;5034167;28;20118;-95
2023/12/22 05:05:43;;;;;;;7.60;1.40;;;;;;;;;;5051845;28;20076;-95
2023/12/22 05:08:11;;;;;;;9.80;1.67;;;;;;;;;;5053512;28;20052;-94
2023/12/22 05:10:38;;;;;;;8.40;1.50;;;;;;;;;;5065682;28;20060;-94
2023/12/22 05:13:06;;;;;;;8.85;1.30;;;;;;;;;;5061571;28;20396;-93
2023/12/22 05:15:33;;;;;;;11.02;1.67;;;;;;;;;;5060141;28;20132;-94
2023/12/22 05:18:00;;;;;;;9.20;1.70;;;;;;;;;;5059775;28;20057;-94
2023/12/22 05:20:28;;;;;;;7.40;1.30;;;;;;;;;;5047285;28;20059;-93
2023/12/22 05:22:55;;;;;;;10.00;1.63;;;;;;;;;;5032277;28;20096;-93
2023/12/22 05:25:22;;;;;;;15.00;1.88;;;;;;;;;;5046077;28;20504;-93
2023/12/22 05:27:50;;;;;;;10.23;2.08;;;;;;;;;;5046822;28;20099;-94
2023/12/22 05:30:17;;;;;;;4.75;1.80;;;;;;;;;;5046626;28;20080;-94
2023/12/22 05:32:45;;;;;;;15.32;2.13;;;;;;;;;;5046616;28;20059;-92
2023/12/22 05:35:12;;;;;;;8.90;2.10;;;;;;;;;;5045124;28;20566;-93
2023/12/22 05:37:39;;;;;;;6.45;1.33;;;;;;;;;;5060451;28;20049;-92
2023/12/22 05:40:07;;;;;;;10.50;1.90;;;;;;;;;;5059810;28;20044;-94
2023/12/22 05:42:34;;;;;;;16.58;2.28;;;;;;;;;;5059484;28;20060;-92
2023/12/22 05:45:02;;;;;;;12.40;1.95;;;;;;;;;;5043309;28;20567;-94
2023/12/22 05:47:29;;;;;;;8.18;1.77;;;;;;;;;;5038479;28;20100;-93
2023/12/22 05:49:56;;;;;;;10.48;2.08;;;;;;;;;;5022912;28;20049;-92
2023/12/22 05:52:24;;;;;;;7.45;1.65;;;;;;;;;;5063211;28;20448;-92
2023/12/22 05:54:51;;;;;;;13.10;1.65;;;;;;;;;;5064117;28;20025;-90
2023/12/22 05:57:18;;;;;;;12.30;2.80;;;;;;;;;;5044931;28;20049;-93
2023/12/22 05:59:46;;;;;;;10.48;1.90;;;;;;;;;;5061004;28;20053;-89
2023/12/22 06:02:13;;;;;;;5.60;1.42;;;;;;;;;;5041943;28;20096;-90
2023/12/22 06:04:41;;;;;;;15.10;2.10;;;;;;;;;;5034805;28;20056;-92
2023/12/22 06:07:08;;;;;;;8.57;1.20;;;;;;;;;;5045321;28;20136;-92
2023/12/22 06:09:35;;;;;;;10.52;2.55;;;;;;;;;;5064165;28;20084;-93
2023/12/22 06:12:03;;;;;;;11.90;1.85;;;;;;;;;;5047572;28;20493;-93
2023/12/22 06:14:31;;;;;;;14.57;2.40;;;;;;;;;;5055311;28;20050;-94
2023/12/22 06:16:58;;;;;;;10.88;1.98;;;;;;;;;;5031254;28;20053;-93
2023/12/22 06:19:28;;;;;;;9.75;1.80;;;;;;;;;;5034867;28;20061;-93
2023/12/22 06:21:55;;;;;;;10.65;1.83;;;;;;;;;;5041984;28;20073;-93
2023/12/22 06:24:23;;;;;;;11.75;2.17;;;;;;;;;;5062176;28;20489;-92
2023/12/22 06:26:50;;;;;;;8.40;2.03;;;;;;;;;;5046716;28;20485;-92
2023/12/22 06:29:17;;;;;;;9.43;2.85;;;;;;;;;;5043702;28;20061;-93
2023/12/22 06:31:45;;;;;;;12.00;2.55;;;;;;;;;;5059152;28;20123;-93
2023/12/22 06:34:12;;;;;;;12.75;2.03;;;;;;;;;;5043922;28;20056;-90
2023/12/22 06:36:39;;;;;;;14.05;2.08;;;;;;;;;;5045779;28;20049;-93
2023/12/22 06:39:06;;;;;;;13.93;2.60;;;;;;;;;;5029304;28;20046;-92
2023/12/22 06:41:34;;;;;;;11.57;2.20;;;;;;;;;;5059130;28;20065;-93
2023/12/22 06:44:01;;;;;;;12.70;1.48;;;;;;;;;;5042467;28;20456;-93
2023/12/22 06:46:30;;;;;;;12.80;1.85;;;;;;;;;;5059138;28;20064;-92
2023/12/22 06:48:58;;;;;;;11.85;1.77;;;;;;;;;;5042362;28;20049;-93
2023/12/22 06:51:30;;;;;;;12.38;1.48;;;;;;;;;;5034753;28;20387;-94
2023/12/22 06:54:00;;;;;;;6.75;1.42;;;;;;;;;;5043843;28;20045;-94
2023/12/22 06:56:30;;;;;;;9.18;1.45;;;;;;;;;;5050896;28;20050;-93
2023/12/22 06:58:58;;;;;;;8.93;1.52;;;;;;;;;;5058041;28;20045;-93
2023/12/22 07:01:26;;;;;;;6.05;1.35;;;;;;;;;;5063294;28;20416;-93
2023/12/22 07:03:54;;;;;;;6.90;1.10;;;;;;;;;;5046070;28;20053;-91
2023/12/22 07:06:22;;;;;;;6.80;1.17;;;;;;;;;;5037740;28;20061;-93
2023/12/22 07:08:57;;;;;;;6.78;1.27;;;;;;;;;;5070023;28;20067;-91
2023/12/22 07:11:24;;;;;;;5.45;1.48;;;;;;;;;;5064211;28;20053;-93
2023/12/22 07:14:04;;;;;;;5.72;1.40;;;;;;;;;;5065878;28;20116;-93
2023/12/22 07:16:31;;;;;;;10.10;1.63;;;;;;;;;;5055054;28;20110;-95
2023/12/22 07:18:58;;;;;;;5.15;1.10;;;;;;;;;;5049988;28;20049;-93
2023/12/22 07:21:27;;;;;;;5.13;1.00;;;;;;;;;;5041710;28;20091;-93
2023/12/22 07:23:54;;;;;;;5.70;1.25;;;;;;;;;;5044925;28;20049;-93
2023/12/22 07:26:24;;;;;;;5.97;1.25;;;;;;;;;;5043476;28;20086;-95
2023/12/22 07:28:51;;;;;;;4.88;0.90;;;;;;;;;;5048959;28;20102;-93
2023/12/22 07:31:20;;;;;;;6.00;2.65;;;;;;;;;;5045078;28;20493;-92
2023/12/22 07:33:47;;;;;;;3.00;1.52;;;;;;;;;;5061986;28;20065;-93
2023/12/22 07:36:15;;;;;;;4.13;0.73;;;;;;;;;;5068022;28;20076;-90
2023/12/22 07:38:42;;;;;;;1.70;0.50;;;;;;;;;;5042623;28;20103;-92
2023/12/22 07:41:10;;;;;;;2.47;1.08;;;;;;;;;;5057805;28;20058;-92
2023/12/22 07:43:39;;;;;;;6.80;3.17;;;;;;;;;;5040953;28;20046;-94
2023/12/22 07:46:09;;;;;;;35.47;15.02;;;;;;;;;;5043615;28;20056;-92
2023/12/22 07:48:37;;;;;;;6.07;2.97;;;;;;;;;;5045560;28;20056;-91
2023/12/22 07:51:04;;;;;;;4.63;1.10;;;;;;;;;;5036579;28;20065;-93
2023/12/22 07:53:32;;;;;;;4.05;0.60;;;;;;;;;;5034220;28;20069;-89
2023/12/22 07:55:59;;;;;;;2.88;0.93;;;;;;;;;;5040649;28;20107;-91
2023/12/22 07:58:26;;;;;;;2.90;0.70;;;;;;;;;;5044513;28;20064;-91
2023/12/22 08:00:53;;;;;;;4.68;0.82;;;;;;;;;;5044822;28;20492;-92
2023/12/22 08:03:21;;;;;;;4.97;0.60;;;;;;;;;;5041742;28;20053;-91
2023/12/22 08:05:48;;;;;;;3.40;0.63;;;;;;;;;;5058494;28;20115;-91
2023/12/22 08:08:15;;;;;;;3.45;0.68;;;;;;;;;;5040868;28;20041;-92
2023/12/22 08:10:42;;;;;;;3.00;0.75;;;;;;;;;;5062944;28;20057;-91
2023/12/22 08:13:10;;;;;;;7.00;1.00;;;;;;;;;;5042450;28;20056;-91
2023/12/22 08:15:37;;;;;;;4.38;1.00;;;;;;;;;;5057308;28;20118;-91
2023/12/22 08:18:04;;;;;;;4.38;0.98;;;;;;;;;;5058056;28;20103;-92
2023/12/22 08:20:32;;;;;;;5.22;0.80;;;;;;;;;;5044742;28;20551;-90
2023/12/22 08:23:04;;;;;;;3.90;0.70;;;;;;;;;;5047320;28;20061;-93
2023/12/22 08:25:40;;;;;;;4.70;1.50;;;;;;;;;;5069152;28;20057;-92
2023/12/22 08:28:07;;;;;;;2.85;0.82;;;;;;;;;;5056393;28;20057;-91
2023/12/22 08:30:36;;;;;;;6.10;0.90;;;;;;;;;;5031907;28;20064;-91
2023/12/22 08:33:03;;;;;;;9.27;1.70;;;;;;;;;;5044294;28;20076;-91
2023/12/22 08:35:30;;;;;;;6.00;0.93;;;;;;;;;;5057834;28;20050;-92
2023/12/22 08:37:58;;;;;;;4.63;1.00;;;;;;;;;;5056607;28;20486;-91
2023/12/22 08:40:26;;;;;;;3.55;0.57;;;;;;;;;;5066002;28;20107;-92
2023/12/22 08:42:59;;;;;;;4.60;0.80;;;;;;;;;;5040687;28;20472;-91
2023/12/22 08:45:30;;;;;;;2.80;0.70;;;;;;;;;;5036252;28;20073;-90
2023/12/22 08:47:57;;;;;;;5.82;0.85;;;;;;;;;;5061437;28;20123;-93
2023/12/22 08:50:25;;;;;;;3.90;0.70;;;;;;;;;;5064389;28;20132;-94
2023/12/22 08:52:53;;;;;;;3.63;0.85;;;;;;;;;;5047727;28;20075;-94
2023/12/22 08:55:20;;;;;;;3.60;0.73;;;;;;;;;;5042336;28;20053;-92
2023/12/22 08:57:47;;;;;;;4.43;0.80;;;;;;;;;;5037525;28;20049;-91
2023/12/22 09:00:26;;;;;;;3.92;0.93;;;;;;;;;;5044133;28;20057;-91
2023/12/22 09:02:53;;;;;;;4.82;1.27;;;;;;;;;;5060899;28;20045;-92
2023/12/22 09:05:21;;;;;;;1.95;0.70;;;;;;;;;;5063518;28;20057;-89
2023/12/22 09:07:49;;;;;;;4.78;0.90;;;;;;;;;;5050087;28;20058;-89
2023/12/22 09:10:17;;;;;;;2.58;0.70;;;;;;;;;;5062937;28;20076;-91
2023/12/22 09:12:44;;;;;;;1.92;0.77;;;;;;;;;;5047917;28;20562;-90
2023/12/22 09:15:12;;;;;;;6.00;0.93;;;;;;;;;;5030387;28;20103;-91
2023/12/22 09:17:41;;;;;;;3.97;1.00;;;;;;;;;;5046343;28;20140;-91
2023/12/22 09:20:12;;;;;;;3.70;1.00;;;;;;;;;;5037944;28;20050;-92
2023/12/22 09:22:40;;;;;;;7.43;1.42;;;;;;;;;;5044794;28;20113;-90
2023/12/22 09:25:09;;;;;;;3.28;1.20;;;;;;;;;;5045666;28;20053;-87
2023/12/22 09:27:38;;;;;;;4.05;1.00;;;;;;;;;;5047148;28;20094;-91
2023/12/22 09:30:06;;;;;;;8.05;1.42;;;;;;;;;;5046362;28;20079;-92
2023/12/22 09:32:34;;;;;;;1.65;0.77;;;;;;;;;;5059817;28;20053;-89
2023/12/22 09:35:02;;;;;;;4.75;1.23;;;;;;;;;;5060250;28;20069;-93
2023/12/22 09:37:30;;;;;;;1.70;0.75;;;;;;;;;;5049366;28;20045;-88
2023/12/22 09:39:57;;;;;;;2.28;0.73;;;;;;;;;;5061415;28;20041;-87
2023/12/22 09:42:27;;;;;;;5.38;1.10;;;;;;;;;;5046915;28;20046;-90
2023/12/22 09:44:55;;;;;;;4.13;0.98;;;;;;;;;;5051463;28;20103;-92
2023/12/22 09:47:24;;;;;;;8.07;1.10;;;;;;;;;;5057280;28;20062;-91
2023/12/22 09:49:52;;;;;;;4.82;0.80;;;;;;;;;;5038904;28;20139;-90
2023/12/22 09:52:19;;;;;;;2.80;0.80;;;;;;;;;;5045133;28;20068;-90
2023/12/22 09:54:47;;;;;;;4.90;1.05;;;;;;;;;;5059377;28;20636;-92
2023/12/22 09:57:15;;;;;;;4.53;0.93;;;;;;;;;;5066893;28;20511;-92
2023/12/22 09:59:54;;;;;;;4.07;1.40;;;;;;;;;;5058448;28;20049;-89
2023/12/22 10:02:23;;;;;;;7.57;1.70;;;;;;;;;;5062426;28;20126;-94
2023/12/22 10:04:51;;;;;;;2.90;1.80;;;;;;;;;;5046044;28;20045;-92
2023/12/22 10:07:18;;;;;;;5.68;2.13;;;;;;;;;;5041510;28;20044;-93
2023/12/22 10:09:47;;;;;;;2.72;1.15;;;;;;;;;;5021181;28;20057;-92
2023/12/22 10:12:15;;;;;;;5.45;1.13;;;;;;;;;;5061459;28;20382;-91
2023/12/22 10:14:43;;;;;;;6.93;2.05;;;;;;;;;;5035857;28;20132;-92
2023/12/22 10:17:10;;;;;;;4.05;1.00;;;;;;;;;;5040217;28;20049;-92
2023/12/22 10:19:38;;;;;;;5.18;1.00;;;;;;;;;;5058458;28;20049;-93
2023/12/22 10:22:05;;;;;;;5.10;1.38;;;;;;;;;;5060026;28;20076;-92
2023/12/22 10:24:39;;;;;;;2.15;0.57;;;;;;;;;;5045539;28;20073;-91
2023/12/22 10:27:06;;;;;;;5.30;0.90;;;;;;;;;;5046078;28;20045;-91
2023/12/22 10:29:34;;;;;;;4.57;0.80;;;;;;;;;;5059220;28;20061;-92
2023/12/22 10:32:02;;;;;;;2.72;1.05;;;;;;;;;;5042783;28;20042;-93
2023/12/22 10:34:34;;;;;;;3.95;1.00;;;;;;;;;;5045371;28;20147;-91
2023/12/22 10:37:01;;;;;;;3.90;1.02;;;;;;;;;;5045550;28;20110;-93
2023/12/22 10:39:29;;;;;;;4.75;0.80;;;;;;;;;;5059083;28;20115;-94
2023/12/22 10:41:59;;;;;;;2.53;0.80;;;;;;;;;;5058874;28;20057;-92
2023/12/22 10:44:27;;;;;;;3.00;0.70;;;;;;;;;;5050357;28;20053;-93
2023/12/22 10:46:54;;;;;;;5.05;1.20;;;;;;;;;;5042557;28;20382;-92
2023/12/22 10:49:22;;;;;;;5.68;1.27;;;;;;;;;;5061176;28;20049;-92
2023/12/22 10:51:50;;;;;;;5.07;0.82;;;;;;;;;;5049036;28;20050;-91
2023/12/22 10:54:18;;;;;;;3.83;1.10;;;;;;;;;;5073972;28;20050;-93
2023/12/22 10:56:45;;;;;;;1.80;0.70;;;;;;;;;;5050556;28;20052;-92
2023/12/22 10:59:12;;;;;;;2.25;0.68;;;;;;;;;;5044399;28;20045;-91
2023/12/22 11:01:40;;;;;;;3.70;0.68;;;;;;;;;;5044564;28;20056;-91
2023/12/22 11:04:09;;;;;;;2.35;0.85;;;;;;;;;;5041332;28;20049;-92
2023/12/22 11:06:37;;;;;;;3.25;0.82;;;;;;;;;;5045861;28;20064;-90
2023/12/22 11:09:09;;;;;;;2.60;0.98;;;;;;;;;;5045743;28;20055;-93
2023/12/22 11:11:37;;;;;;;4.38;1.20;;;;;;;;;;5044766;28;20562;-92
2023/12/22 11:14:06;;;;;;;1.65;0.75;;;;;;;;;;5044555;28;20045;-92
2023/12/22 11:16:34;;;;;;;3.65;1.15;;;;;;;;;;5041282;28;20072;-93
2023/12/22 11:19:02;;;;;;;5.07;0.90;;;;;;;;;;5040552;28;20524;-91
2023/12/22 11:21:30;;;;;;;6.72;1.20;;;;;;;;;;5044807;28;20386;-92
2023/12/22 11:23:58;;;;;;;3.25;1.52;;;;;;;;;;5044531;28;20079;-93
2023/12/22 11:26:26;;;;;;;1.90;0.75;;;;;;;;;;5041395;28;20469;-93
2023/12/22 11:28:53;;;;;;;3.58;0.75;;;;;;;;;;5057814;28;20095;-93
2023/12/22 11:31:21;;;;;;;1.25;0.60;;;;;;;;;;5060278;28;20053;-92
2023/12/22 11:33:49;;;;;;;2.25;1.05;;;;;;;;;;5044424;28;20053;-94
2023/12/22 11:36:31;;;;;;;1.83;0.60;;;;;;;;;;5033556;28;20071;-93
2023/12/22 11:38:59;;;;;;;4.97;1.05;;;;;;;;;;5049396;28;20054;-93
2023/12/22 11:41:28;;;;;;;0.70;0.32;;;;;;;;;;5033009;28;20057;-92
2023/12/22 11:43:56;;;;;;;2.13;0.50;;;;;;;;;;5041003;28;20053;-93
2023/12/22 11:46:24;;;;;;;2.60;1.05;;;;;;;;;;5044362;28;20072;-92
2023/12/22 11:48:52;;;;;;;5.07;1.00;;;;;;;;;;5044355;28;20053;-92
2023/12/22 11:51:20;;;;;;;1.35;0.80;;;;;;;;;;5041625;28;20052;-92
2023/12/22 11:53:47;;;;;;;1.67;0.60;;;;;;;;;;5057519;28;20059;-92
2023/12/22 11:56:18;;;;;;;1.58;0.90;;;;;;;;;;5058898;28;20046;-92
2023/12/22 11:58:52;;;;;;;1.60;0.55;;;;;;;;;;5044548;28;20053;-92
2023/12/22 12:01:20;;;;;;;0.70;0.70;;;;;;;;;;5036272;28;20046;-92
2023/12/22 12:03:56;;;;;;;1.75;0.40;;;;;;;;;;5037933;28;20591;-92
2023/12/22 12:06:31;;;;;;;2.95;0.90;;;;;;;;;;5028666;28;20075;-91
2023/12/22 12:09:04;;;;;;;1.25;0.32;;;;;;;;;;5051349;28;20048;-90
2023/12/22 12:11:50;;;;;;;1.03;0.43;;;;;;;;;;5041263;28;20554;-92
2023/12/22 12:14:30;;;;;;;1.33;0.77;;;;;;;;;;5048742;28;20297;-92
2023/12/22 12:17:01;;;;;;;0.65;0.40;;;;;;;;;;5057016;28;20100;-92
2023/12/22 12:19:28;;;;;;;0.52;0.20;;;;;;;;;;5050913;28;20050;-91
2023/12/22 12:21:55;;;;;;;0.30;0.20;;;;;;;;;;5061382;28;20053;-93
2023/12/22 12:24:23;;;;;;;0.82;0.30;;;;;;;;;;5064116;28;20060;-91
2023/12/22 12:26:50;;;;;;;0.77;0.28;;;;;;;;;;5035206;28;20058;-91
2023/12/22 12:29:18;;;;;;;0.68;0.45;;;;;;;;;;5043070;28;20056;-92
2023/12/22 12:31:45;;;;;;;0.60;0.30;;;;;;;;;;5058926;28;20080;-89
2023/12/22 12:34:14;;;;;;;1.67;0.45;;;;;;;;;;5046296;28;20053;-89
2023/12/22 12:36:42;;;;;;;0.20;0.17;;;;;;;;;;5060842;28;20065;-89
2023/12/22 12:39:10;;;;;;;0.68;0.40;;;;;;;;;;5062776;28;20080;-91
2023/12/22 12:41:41;;;;;;;0.68;0.22;;;;;;;;;;5048756;28;20404;-89
2023/12/22 12:44:10;;;;;;;1.13;0.20;;;;;;;;;;5048273;28;20041;-88
2023/12/22 12:46:38;;;;;;;0.93;0.47;;;;;;;;;;5046916;28;20140;-90
2023/12/22 12:49:11;;;;;;;1.52;0.43;;;;;;;;;;5070642;28;20045;-91
2023/12/22 12:51:45;;;;;;;4.22;0.80;;;;;;;;;;5062322;28;20053;-89
2023/12/22 12:54:14;;;;;;;1.83;0.40;;;;;;;;;;5064426;28;20075;-88
2023/12/22 12:56:42;;;;;;;0.40;0.20;;;;;;;;;;5035759;28;20054;-90
2023/12/22 12:59:14;;;;;;;1.25;0.30;;;;;;;;;;5065898;28;20053;-90
2023/12/22 13:01:45;;;;;;;0.40;0.20;;;;;;;;;;5050535;28;20071;-90
2023/12/22 13:04:13;;;;;;;1.55;0.20;;;;;;;;;;5041675;28;20075;-90
2023/12/22 13:06:48;;;;;;;0.10;0.10;;;;;;;;;;5052392;28;20079;-92
2023/12/22 13:09:16;;;;;;;1.25;0.28;;;;;;;;;;5048620;28;20493;-91
2023/12/22 13:11:44;;;;;;;0.13;0.13;;;;;;;;;;5061696;28;20497;-93
2023/12/22 13:14:11;;;;;;;1.08;0.30;;;;;;;;;;5048822;28;20112;-92
2023/12/22 13:16:39;;;;;;;1.52;0.20;;;;;;;;;;5062339;28;20456;-91
2023/12/22 13:19:07;;;;;;;1.85;0.40;;;;;;;;;;5059909;28;20080;-89
2023/12/22 13:21:34;;;;;;;1.00;0.10;;;;;;;;;;5055373;28;20057;-89
2023/12/22 13:24:12;;;;;;;0.35;0.20;;;;;;;;;;5052470;28;20040;-90
2023/12/22 13:26:40;;;;;;;0.10;0.03;;;;;;;;;;5066515;28;20053;-91
2023/12/22 13:29:08;;;;;;;0.35;0.10;;;;;;;;;;5060838;28;20053;-91
2023/12/22 13:31:38;;;;;;;0.10;0.10;;;;;;;;;;5046591;28;20057;-89
2023/12/22 13:34:12;;;;;;;0.10;0.10;;;;;;;;;;5045748;28;20047;-91
2023/12/22 13:36:39;;;;;;;1.55;0.10;;;;;;;;;;5061215;28;20052;-90
2023/12/22 13:39:07;;;;;;;0.10;0.08;;;;;;;;;;5039883;28;20075;-91
2023/12/22 13:41:41;;;;;;;0.10;0.10;;;;;;;;;;5051198;28;20103;-88
2023/12/22 13:44:09;;;;;;;0.10;0.10;;;;;;;;;;5062658;28;20053;-90
2023/12/22 13:46:36;;;;;;;0.10;0.10;;;;;;;;;;5046899;28;20088;-89
2023/12/22 13:49:05;;;;;;;0.38;0.10;;;;;;;;;;5047073;28;20056;-93
2023/12/22 13:51:59;;;;;;;0.43;0.10;;;;;;;;;;5049935;28;20076;-90
2023/12/22 13:54:33;;;;;;;1.90;0.98;;;;;;;;;;5052176;28;20045;-89
2023/12/22 13:57:01;;;;;;;0.15;0.15;;;;;;;;;;5063209;28;20049;-88
2023/12/22 13:59:35;;;;;;;0.57;0.30;;;;;;;;;;5055158;28;20045;-88
2023/12/22 14:02:02;;;;;;;;;;;;;;;;;;5066739;28;20117;-90
2023/12/22 14:04:33;;;;;;;0.22;0.22;;;;;;;;;;5049601;28;19928;-90
2023/12/22 14:07:00;;;;;;;0.10;0.10;;;;;;;;;;5047310;28;20063;-90
2023/12/22 14:09:31;;;;;;;0.22;0.10;;;;;;;;;;5053115;28;20525;-90
2023/12/22 14:11:59;;;;;;;3.67;1.00;;;;;;;;;;5043776;28;20115;-88
2023/12/22 14:14:31;;;;;;;4.82;1.13;;;;;;;;;;5052264;28;20049;-90
2023/12/22 14:16:59;;;;;;;0.22;0.10;;;;;;;;;;5059327;28;20041;-90
2023/12/22 14:19:26;;;;;;;0.20;0.20;;;;;;;;;;5050904;28;20072;-90
2023/12/22 14:21:53;;;;;;;1.20;0.32;;;;;;;;;;5058774;28;20072;-90
2023/12/22 14:24:21;;;;;;;0.10;0.10;;;;;;;;;;5061268;28;20103;-90
2023/12/22 14:26:54;;;;;;;1.13;0.20;;;;;;;;;;5046075;28;20540;-90
2023/12/22 14:29:22;;;;;;;0.30;0.20;;;;;;;;;;5042890;28;20052;-90
2023/12/22 14:31:50;;;;;;;0.40;0.10;;;;;;;;;;5058822;28;20053;-89
2023/12/22 14:34:18;;;;;;;0.13;0.13;;;;;;;;;;5042339;28;20049;-91
2023/12/22 14:36:46;;;;;;;0.43;0.10;;;;;;;;;;5036416;28;20108;-90
2023/12/22 14:39:13;;;;;;;0.10;0.10;;;;;;;;;;5034358;28;20050;-90
2023/12/22 14:41:42;;;;;;;0.70;0.20;;;;;;;;;;5065073;28;20077;-91
2023/12/22 14:44:09;;;;;;;0.52;0.22;;;;;;;;;;5059168;28;20168;-89